Time;durP1;ratioP1;P1;durP2;ratioP2;P2;SDS_P1;SDS_P2;PMS_P1;PMS_P2;Temp;Humidity;BMP_temperature;BMP_pressure;BME280_temperature;BME280_humidity;BME280_pressure;Samples;Min_cycle;Max_cycle;Signal;HPM_P1;HPM_P2
2022/07/05 00:01:57;;;;;;;;;2.00;2.00;;;;;19.87;52.44;101783.25;5041054;28;45288;-75
2022/07/05 00:04:23;;;;;;;;;2.00;2.00;;;;;19.85;52.63;101789.91;5060093;28;45257;-75
2022/07/05 00:09:33;;;;;;;;;2.00;2.00;;;;;19.73;52.82;101782.47;5059852;28;45258;-75
2022/07/05 00:11:58;;;;;;;;;1.00;0.67;;;;;19.70;53.04;101782.88;5060097;28;45178;-75
2022/07/05 00:14:23;;;;;;;;;1.33;1.33;;;;;19.64;53.00;101776.44;5054060;28;45892;-76
2022/07/05 00:16:49;;;;;;;;;3.00;3.00;;;;;19.59;53.64;101776.25;5048652;28;47317;-76
2022/07/05 00:19:15;;;;;;;;;3.00;3.00;;;;;19.60;53.63;101783.31;5041644;28;45343;-76
2022/07/05 00:21:40;;;;;;;;;3.00;3.00;;;;;19.55;53.31;101783.94;5057939;28;45394;-75
2022/07/05 00:24:05;;;;;;;;;2.00;2.00;;;;;19.49;53.58;101789.34;5059530;28;45426;-75
2022/07/05 00:26:31;;;;;;;;;3.33;2.67;;;;;19.43;53.81;101781.03;5038082;28;48564;-75
2022/07/05 00:28:56;;;;;;;;;1.67;1.67;;;;;19.35;54.09;101775.88;5041027;28;45424;-75
2022/07/05 00:31:21;;;;;;;;;2.00;2.00;;;;;19.34;54.46;101776.91;5059970;28;45304;-76
2022/07/05 00:33:47;;;;;;;;;2.00;2.00;;;;;19.27;54.44;101760.72;5059513;28;45887;-76
2022/07/05 00:36:12;;;;;;;;;1.67;1.00;;;;;19.31;54.07;101780.03;5047361;28;47257;-75
2022/07/05 00:38:37;;;;;;;;;2.00;2.00;;;;;19.27;54.66;101776.06;5041246;28;46889;-76
2022/07/05 00:41:03;;;;;;;;;3.00;3.00;;;;;19.21;54.84;101766.13;5059603;28;45374;-75
2022/07/05 00:43:28;;;;;;;;;2.67;2.67;;;;;19.18;55.30;101770.06;5059602;28;45296;-76
2022/07/05 00:45:53;;;;;;;;;3.00;3.00;;;;;19.12;55.37;101763.63;5059411;28;45383;-76
2022/07/05 00:48:19;;;;;;;;;3.00;3.00;;;;;19.09;55.16;101772.13;5059499;28;45717;-75
2022/07/05 00:50:44;;;;;;;;;1.67;1.67;;;;;19.07;55.33;101763.41;5059392;28;45489;-76
2022/07/05 00:53:09;;;;;;;;;2.00;2.00;;;;;19.03;55.30;101776.44;5046680;28;45890;-75
2022/07/05 00:55:35;;;;;;;;;2.67;2.67;;;;;18.97;55.84;101766.50;5040851;28;48162;-76
2022/07/05 00:58:00;;;;;;;;;3.33;3.33;;;;;18.93;55.89;101762.56;5059529;28;45383;-75
2022/07/05 01:00:26;;;;;;;;;3.33;3.33;;;;;18.85;55.89;101768.16;5059415;28;45281;-75
2022/07/05 01:02:51;;;;;;;;;2.00;2.00;;;;;18.78;56.64;101777.03;5059283;28;45291;-75
2022/07/05 01:05:17;;;;;;;;;2.67;2.67;;;;;18.73;56.46;101773.28;5059229;28;45265;-75
2022/07/05 01:07:43;;;;;;;;;3.00;3.00;;;;;18.71;57.06;101775.38;5040108;28;45352;-76
2022/07/05 01:10:08;;;;;;;;;4.00;2.00;;;;;18.66;57.29;101773.28;5059153;28;45237;-75
2022/07/05 01:12:34;;;;;;;;;2.00;2.00;;;;;18.60;57.39;101768.72;5040287;28;46517;-75
2022/07/05 01:14:59;;;;;;;;;4.00;4.00;;;;;18.55;56.93;101763.94;5059274;28;46154;-75
2022/07/05 01:17:25;;;;;;;;;2.33;2.33;;;;;18.54;57.19;101767.66;5061719;28;45276;-76
2022/07/05 01:19:51;;;;;;;;;3.67;2.33;;;;;18.46;57.54;101763.28;5055953;28;45696;-76
2022/07/05 01:22:19;;;;;;;;;2.33;2.00;;;;;18.46;57.11;101760.59;5040959;28;47332;-76
2022/07/05 01:24:49;;;;;;;;;3.00;3.00;;;;;18.43;57.64;101761.00;5058574;28;46146;-75
2022/07/05 01:27:15;;;;;;;;;4.00;4.00;;;;;18.40;57.46;101767.63;5037217;28;45854;-76
2022/07/05 01:29:42;;;;;;;;;3.00;3.00;;;;;18.33;57.82;101753.31;5045664;28;45317;-76
2022/07/05 01:32:08;;;;;;;;;3.00;3.00;;;;;18.32;57.95;101756.19;5034878;28;46084;-75
2022/07/05 01:34:39;;;;;;;;;4.00;4.00;;;;;18.32;57.41;101766.97;5048098;28;45349;-75
2022/07/05 01:37:05;;;;;;;;;4.00;4.00;;;;;18.28;58.06;101771.91;5058622;28;45383;-75
2022/07/05 01:39:31;;;;;;;;;3.33;2.33;;;;;18.20;57.76;101764.03;5058925;28;45540;-75
2022/07/05 01:41:56;;;;;;;;;3.00;3.00;;;;;18.19;58.31;101762.38;5037274;28;46122;-75
2022/07/05 01:44:21;;;;;;;;;3.00;1.00;;;;;18.14;57.70;101762.97;5037434;28;47512;-75
2022/07/05 01:46:53;;;;;;;;;3.00;3.00;;;;;18.11;58.30;101758.00;5050864;28;45335;-75
2022/07/05 01:49:23;;;;;;;;;4.67;4.67;;;;;18.05;58.72;101768.47;5058935;28;45374;-76
2022/07/05 01:51:53;;;;;;;;;3.00;3.00;;;;;18.00;58.46;101757.50;5058935;28;45353;-75
2022/07/05 01:54:19;;;;;;;;;4.00;4.00;;;;;18.02;58.82;101760.00;5040746;28;46986;-76
2022/07/05 01:56:44;;;;;;;;;4.00;2.00;;;;;17.97;58.95;101765.13;5040786;28;45843;-76
2022/07/05 01:59:11;;;;;;;;;2.33;2.33;;;;;17.92;58.89;101763.03;5059201;28;45505;-76
2022/07/05 02:01:38;;;;;;;;;3.00;3.00;;;;;17.91;58.44;101767.59;5041035;28;46529;-75
2022/07/05 02:04:09;;;;;;;;;3.00;3.00;;;;;17.87;59.14;101769.00;5058904;28;45363;-76
2022/07/05 02:06:35;;;;;;;;;4.00;4.00;;;;;17.79;59.18;101759.25;5059128;28;45381;-76
2022/07/05 02:09:02;;;;;;;;;3.33;2.00;;;;;17.80;59.09;101760.06;5057673;28;45343;-75
2022/07/05 02:11:27;;;;;;;;;3.00;3.00;;;;;17.73;59.10;101760.03;5056268;28;45495;-75
2022/07/05 02:13:53;;;;;;;;;2.00;2.00;;;;;17.69;59.45;101749.88;5058178;28;45595;-75
2022/07/05 02:16:22;;;;;;;;;2.00;2.00;;;;;17.71;59.67;101754.00;5046378;28;45307;-75
2022/07/05 02:18:47;;;;;;;;;3.00;3.00;;;;;17.75;59.31;101765.22;5045384;28;45523;-76
2022/07/05 02:21:13;;;;;;;;;4.67;3.33;;;;;17.69;59.30;101760.63;5058200;28;45337;-75
2022/07/05 02:23:39;;;;;;;;;2.00;2.00;;;;;17.65;59.57;101757.50;5058161;28;46392;-76
2022/07/05 02:26:04;;;;;;;;;2.00;2.00;;;;;17.63;59.86;101760.38;5061436;28;45454;-75
2022/07/05 02:28:29;;;;;;;;;2.00;2.00;;;;;17.53;59.31;101759.88;5061717;28;45273;-75
2022/07/05 02:30:54;;;;;;;;;2.33;2.33;;;;;17.52;59.92;101759.06;5061876;28;45594;-75
2022/07/05 02:33:20;;;;;;;;;2.33;1.33;;;;;17.44;60.02;101764.59;5061467;28;50720;-75
2022/07/05 02:35:45;;;;;;;;;3.33;3.33;;;;;17.42;59.97;101764.78;5043753;28;45352;-75
2022/07/05 02:38:10;;;;;;;;;3.00;2.67;;;;;17.40;60.78;101755.25;5043431;28;45340;-76
2022/07/05 02:40:36;;;;;;;;;2.00;2.00;;;;;17.34;60.31;101750.66;5059233;28;47181;-75
2022/07/05 02:43:01;;;;;;;;;2.67;2.67;;;;;17.32;60.15;101763.44;5043498;28;47747;-75
2022/07/05 02:45:26;;;;;;;;;2.33;2.33;;;;;17.34;60.53;101764.09;5061338;28;45335;-75
2022/07/05 02:47:52;;;;;;;;;3.67;3.67;;;;;17.26;60.64;101760.53;5043500;28;45480;-75
2022/07/05 02:50:17;;;;;;;;;3.67;3.67;;;;;17.21;60.83;101752.22;5061373;28;45489;-75
2022/07/05 02:52:42;;;;;;;;;4.00;4.00;;;;;17.13;60.70;101752.34;5061450;28;45242;-75
2022/07/05 02:55:08;;;;;;;;;2.00;2.00;;;;;17.10;61.10;101758.97;5061115;28;48980;-76
2022/07/05 02:57:37;;;;;;;;;1.00;1.00;;;;;17.02;61.12;101753.66;5061181;28;45300;-76
2022/07/05 03:00:04;;;;;;;;;3.00;3.00;;;;;16.96;61.05;101763.34;5061286;28;45506;-76
2022/07/05 03:02:29;;;;;;;;;5.00;5.00;;;;;16.85;61.63;101753.94;5060983;28;46684;-75
2022/07/05 03:04:54;;;;;;;;;2.67;2.33;;;;;16.81;61.41;101768.75;5061295;28;45414;-76
2022/07/05 03:07:20;;;;;;;;;4.67;3.33;;;;;16.71;61.49;101755.66;5061055;28;47257;-75
2022/07/05 03:09:45;;;;;;;;;3.67;3.67;;;;;16.62;61.70;101760.31;5061092;28;45375;-75
2022/07/05 03:12:10;;;;;;;;;3.00;3.00;;;;;16.53;62.29;101758.78;5060824;28;45582;-75
2022/07/05 03:14:35;;;;;;;;;4.67;2.67;;;;;16.48;62.51;101763.84;5060980;28;45281;-75
2022/07/05 03:17:01;;;;;;;;;4.00;4.00;;;;;16.39;62.70;101763.97;5044264;28;45375;-75
2022/07/05 03:19:26;;;;;;;;;5.67;5.33;;;;;16.34;62.87;101766.38;5060638;28;45434;-75
2022/07/05 03:21:51;;;;;;;;;5.33;4.67;;;;;16.27;63.43;101765.47;5061089;28;46855;-75
2022/07/05 03:24:17;;;;;;;;;4.00;4.00;;;;;16.24;63.47;101773.91;5060842;28;45376;-75
2022/07/05 03:26:42;;;;;;;;;4.33;3.67;;;;;16.22;63.58;101776.75;5039465;28;45458;-75
2022/07/05 03:29:08;;;;;;;;;7.00;7.00;;;;;16.18;63.95;101771.94;5052132;28;45460;-75
2022/07/05 03:31:34;;;;;;;;;5.67;5.00;;;;;16.19;64.13;101777.13;5060577;28;45611;-76
2022/07/05 03:33:59;;;;;;;;;5.33;5.33;;;;;16.19;64.30;101770.97;5060984;28;45248;-75
2022/07/05 03:36:24;;;;;;;;;3.33;3.33;;;;;16.22;64.11;101779.44;5060401;28;45272;-75
2022/07/05 03:38:50;;;;;;;;;3.00;3.00;;;;;16.25;64.30;101783.63;5060702;28;45371;-75
2022/07/05 03:41:15;;;;;;;;;4.67;4.67;;;;;16.23;64.16;101767.72;5060143;28;50457;-75
2022/07/05 03:43:40;;;;;;;;;3.00;3.00;;;;;16.24;64.13;101769.38;5042349;28;46150;-75
2022/07/05 03:46:06;;;;;;;;;4.00;4.00;;;;;16.26;64.67;101774.56;5060706;28;45337;-75
2022/07/05 03:48:33;;;;;;;;;3.33;3.33;;;;;16.30;64.28;101783.88;5060308;28;45303;-75
2022/07/05 03:50:58;;;;;;;;;6.33;5.33;;;;;16.26;64.25;101790.66;5056899;28;46398;-75
2022/07/05 03:53:23;;;;;;;;;4.00;4.00;;;;;16.25;64.12;101797.03;5036030;28;50638;-75
2022/07/05 03:55:49;;;;;;;;;3.00;3.00;;;;;16.22;63.97;101790.16;5041711;28;45474;-76
2022/07/05 03:58:14;;;;;;;;;5.67;5.67;;;;;16.15;64.27;101792.78;5043225;28;45553;-76
2022/07/05 04:00:39;;;;;;;;;4.00;4.00;;;;;16.05;64.58;101794.91;5042232;28;46971;-76
2022/07/05 04:03:05;;;;;;;;;5.33;5.33;;;;;16.02;64.98;101797.97;5042157;28;45348;-75
2022/07/05 04:05:30;;;;;;;;;4.00;4.00;;;;;15.98;65.06;101810.88;5042185;28;45435;-75
2022/07/05 04:07:56;;;;;;;;;3.00;3.00;;;;;15.94;65.10;101801.53;5060138;28;45451;-75
2022/07/05 04:10:23;;;;;;;;;8.00;6.00;;;;;15.90;65.39;101802.91;5059631;28;45599;-75
2022/07/05 04:12:49;;;;;;;;;4.00;4.00;;;;;15.90;65.82;101810.97;5060408;28;45428;-75
2022/07/05 04:15:14;;;;;;;;;5.33;5.33;;;;;15.92;65.88;101816.94;5060028;28;45322;-74
2022/07/05 04:17:51;;;;;;;;;6.67;4.67;;;;;15.87;66.21;101804.09;5049135;28;46158;-75
2022/07/05 04:20:17;;;;;;;;;5.33;5.00;;;;;15.88;66.74;101821.03;5055378;28;47496;-75
2022/07/05 04:22:43;;;;;;;;;5.00;5.00;;;;;15.88;66.96;101823.69;5054242;28;45253;-75
2022/07/05 04:25:18;;;;;;;;;9.00;7.00;;;;;15.91;66.88;101823.34;5045078;28;45234;-74
2022/07/05 04:27:51;;;;;;;;;4.00;4.00;;;;;15.93;66.40;101821.31;5045018;28;45466;-75
2022/07/05 04:30:19;;;;;;;;;5.00;4.00;;;;;15.93;66.43;101821.31;5059902;28;45370;-75
2022/07/05 04:32:45;;;;;;;;;8.00;6.00;;;;;15.94;66.76;101819.44;5054893;28;45584;-76
2022/07/05 04:35:11;;;;;;;;;4.67;4.67;;;;;15.98;66.53;101824.28;5047301;28;45360;-75
2022/07/05 04:37:37;;;;;;;;;6.33;4.00;;;;;15.97;66.77;101824.47;5059655;28;45274;-75
2022/07/05 04:40:04;;;;;;;;;7.00;6.00;;;;;15.92;66.74;101816.94;5059406;28;45423;-75
2022/07/05 04:42:30;;;;;;;;;6.67;6.00;;;;;15.98;66.93;101835.03;5059605;28;45265;-75
2022/07/05 04:44:56;;;;;;;;;6.67;6.67;;;;;15.98;67.11;101829.66;5041508;28;45230;-75
2022/07/05 04:47:21;;;;;;;;;5.00;5.00;;;;;15.96;67.20;101826.34;5040613;28;46380;-75
2022/07/05 04:49:46;;;;;;;;;5.00;5.00;;;;;15.95;68.04;101818.44;5059516;28;46327;-74
2022/07/05 04:52:12;;;;;;;;;8.67;7.00;;;;;15.94;67.85;101830.19;5059091;28;45281;-75
2022/07/05 04:54:37;;;;;;;;;6.33;4.33;;;;;15.94;68.13;101822.13;5059276;28;45236;-75
2022/07/05 04:57:03;;;;;;;;;7.33;6.00;;;;;15.98;68.26;101820.81;5041134;28;47326;-75
2022/07/05 04:59:28;;;;;;;;;6.33;6.00;;;;;15.99;68.59;101825.13;5044684;28;46460;-75
2022/07/05 05:01:53;;;;;;;;;6.00;6.00;;;;;16.05;68.40;101824.41;5058116;28;45293;-75
2022/07/05 05:04:19;;;;;;;;;5.33;4.33;;;;;16.10;68.24;101827.34;5045398;28;45508;-75
2022/07/05 05:06:44;;;;;;;;;5.67;5.67;;;;;16.10;68.76;101822.00;5029679;28;46369;-76
2022/07/05 05:09:09;;;;;;;;;7.67;6.33;;;;;16.13;69.40;101831.50;5041226;28;51297;-75
2022/07/05 05:11:35;;;;;;;;;7.33;5.00;;;;;16.16;69.50;101831.13;5046806;28;45399;-76
2022/07/05 05:14:00;;;;;;;;;5.67;5.67;;;;;16.08;69.23;101823.19;5040488;28;45324;-75
2022/07/05 05:16:25;;;;;;;;;8.33;6.67;;;;;16.11;68.89;101829.03;5065783;28;46627;-75
2022/07/05 05:18:51;;;;;;;;;8.33;8.33;;;;;16.15;69.94;101826.81;5064985;28;46457;-75
2022/07/05 05:21:16;;;;;;;;;8.00;7.67;;;;;16.22;68.74;101840.31;5058830;28;45307;-74
2022/07/05 05:23:41;;;;;;;;;6.67;6.67;;;;;16.25;68.79;101830.03;5039013;28;45397;-74
2022/07/05 05:26:07;;;;;;;;;8.00;6.00;;;;;16.34;68.66;101833.44;5056322;28;48665;-75
2022/07/05 05:28:33;;;;;;;;;6.33;6.00;;;;;16.43;68.40;101836.84;5054314;28;45840;-75
2022/07/05 05:30:58;;;;;;;;;9.00;5.67;;;;;16.48;68.45;101839.81;5029068;28;45748;-76
2022/07/05 05:33:24;;;;;;;;;8.00;6.00;;;;;16.52;68.19;101842.94;5055663;28;45366;-77
2022/07/05 05:35:49;;;;;;;;;6.00;6.00;;;;;16.56;68.39;101846.94;5022876;28;45963;-77
2022/07/05 05:38:14;;;;;;;;;6.00;5.00;;;;;16.58;68.22;101844.06;5057702;28;49194;-76
2022/07/05 05:40:44;;;;;;;;;7.00;6.00;;;;;16.62;68.38;101846.19;5040149;28;45335;-75
2022/07/05 05:43:09;;;;;;;;;7.00;7.00;;;;;16.64;68.31;101841.47;5058931;28;45729;-75
2022/07/05 05:45:35;;;;;;;;;6.00;6.00;;;;;16.73;67.78;101855.59;5050070;28;45945;-74
2022/07/05 05:48:00;;;;;;;;;8.33;6.67;;;;;16.76;68.45;101851.72;5058116;28;45414;-75
2022/07/05 05:50:34;;;;;;;;;6.00;6.00;;;;;16.73;68.46;101858.28;5057515;28;45393;-75
2022/07/05 05:53:01;;;;;;;;;5.67;5.33;;;;;16.74;68.31;101854.59;5055057;28;45368;-75
2022/07/05 05:55:28;;;;;;;;;6.00;6.00;;;;;16.76;69.11;101865.97;5058444;28;45420;-75
2022/07/05 05:57:54;;;;;;;;;7.00;7.00;;;;;16.77;69.08;101867.63;5057907;28;45535;-74
2022/07/05 06:00:21;;;;;;;;;7.00;7.00;;;;;16.84;68.90;101864.19;5059429;28;45646;-75
2022/07/05 06:02:49;;;;;;;;;6.00;6.00;;;;;16.95;68.75;101882.50;5052853;28;45430;-74
2022/07/05 06:05:15;;;;;;;;;6.00;5.67;;;;;17.01;68.50;101879.06;5045955;28;46309;-74
2022/07/05 06:07:52;;;;;;;;;8.00;7.67;;;;;17.06;69.01;101870.41;5039418;28;47352;-75
2022/07/05 06:10:20;;;;;;;;;4.33;4.33;;;;;17.15;68.63;101877.38;5046831;28;45418;-75
2022/07/05 06:12:46;;;;;;;;;5.33;5.33;;;;;17.21;68.53;101872.28;5061383;28;45351;-75
2022/07/05 06:15:11;;;;;;;;;8.67;5.33;;;;;17.28;68.50;101874.00;5058142;28;46611;-74
2022/07/05 06:17:37;;;;;;;;;7.33;7.00;;;;;17.35;68.60;101878.59;5067984;28;45980;-74
2022/07/05 06:20:08;;;;;;;;;9.00;6.67;;;;;17.40;68.34;101876.16;5061921;28;45331;-76
2022/07/05 06:22:33;;;;;;;;;8.33;8.33;;;;;17.35;69.68;101873.22;5043921;28;45360;-75
2022/07/05 06:24:58;;;;;;;;;8.67;8.67;;;;;17.31;69.10;101862.03;5061563;28;45420;-75
2022/07/05 06:27:24;;;;;;;;;8.00;7.67;;;;;17.39;68.81;101874.53;5061722;28;45337;-75
2022/07/05 06:29:49;;;;;;;;;7.33;7.00;;;;;17.46;68.98;101869.19;5043698;28;45404;-74
2022/07/05 06:32:14;;;;;;;;;9.00;7.00;;;;;17.54;69.11;101872.56;5061806;28;45311;-74
2022/07/05 06:34:39;;;;;;;;;8.00;8.00;;;;;17.59;68.61;101872.00;5061714;28;45391;-75
2022/07/05 06:37:05;;;;;;;;;9.67;8.67;;;;;17.69;68.89;101866.28;5043481;28;46969;-75
2022/07/05 06:39:30;;;;;;;;;7.00;7.00;;;;;17.72;68.20;101871.25;5061721;28;45505;-75
2022/07/05 06:41:55;;;;;;;;;6.67;6.67;;;;;17.83;68.50;101871.75;5058878;28;45467;-75
2022/07/05 06:44:21;;;;;;;;;8.67;7.00;;;;;17.90;68.68;101873.47;5061679;28;45401;-75
2022/07/05 06:46:46;;;;;;;;;7.00;7.00;;;;;17.94;67.86;101873.94;5061223;28;45616;-75
2022/07/05 06:49:11;;;;;;;;;9.33;6.67;;;;;17.96;68.21;101871.84;5043357;28;45352;-74
2022/07/05 06:51:36;;;;;;;;;7.33;7.33;;;;;18.00;67.92;101864.25;5061396;28;45470;-75
2022/07/05 06:54:02;;;;;;;;;8.00;7.33;;;;;18.13;67.90;101882.34;5061543;28;45387;-75
2022/07/05 06:56:27;;;;;;;;;10.67;9.00;;;;;18.18;67.64;101869.16;5061045;28;46385;-75
2022/07/05 06:58:53;;;;;;;;;9.33;9.33;;;;;18.25;67.76;101879.94;5061247;28;45349;-74
2022/07/05 07:01:18;;;;;;;;;9.00;7.00;;;;;18.26;68.06;101874.34;5061422;28;45331;-74
2022/07/05 07:03:43;;;;;;;;;11.33;10.00;;;;;18.36;67.33;101878.56;5061155;28;47163;-75
2022/07/05 07:06:09;;;;;;;;;7.33;7.00;;;;;18.38;67.76;101880.00;5061233;28;45371;-75
2022/07/05 07:11:18;;;;;;;;;8.33;8.33;;;;;18.51;68.30;101887.34;5060613;28;45402;-75
2022/07/05 07:13:43;;;;;;;;;6.00;6.00;;;;;18.50;67.42;101885.66;5060834;28;45237;-75
2022/07/05 07:16:09;;;;;;;;;9.33;8.00;;;;;18.59;67.39;101889.03;5065878;28;46316;-75
2022/07/05 07:18:35;;;;;;;;;5.33;5.00;;;;;18.68;67.12;101882.44;5051028;28;45406;-75
2022/07/05 07:21:01;;;;;;;;;7.00;7.00;;;;;18.75;67.05;101887.84;5061135;28;45445;-74
2022/07/05 07:23:26;;;;;;;;;5.67;5.33;;;;;18.88;66.51;101891.59;5060836;28;45390;-75
2022/07/05 07:25:51;;;;;;;;;5.00;5.00;;;;;18.96;66.33;101890.59;5060842;28;45570;-75
2022/07/05 07:28:16;;;;;;;;;8.00;7.00;;;;;19.02;66.38;101882.56;5060732;28;45485;-75
2022/07/05 07:30:42;;;;;;;;;7.33;7.33;;;;;19.21;65.64;101890.09;5061107;28;45268;-75
2022/07/05 07:33:07;;;;;;;;;5.33;5.33;;;;;19.15;65.40;101876.38;5060707;28;45315;-75
2022/07/05 07:35:33;;;;;;;;;4.67;4.67;;;;;19.31;65.15;101893.22;5060901;28;45398;-74
2022/07/05 07:37:58;;;;;;;;;5.33;5.33;;;;;19.38;64.83;101888.66;5053266;28;45334;-75
2022/07/05 07:40:23;;;;;;;;;7.33;5.33;;;;;19.51;64.74;101898.63;5060466;28;45371;-74
2022/07/05 07:42:48;;;;;;;;;4.67;4.67;;;;;19.53;64.13;101893.84;5060621;28;45529;-75
2022/07/05 07:45:14;;;;;;;;;6.00;5.67;;;;;19.59;64.33;101899.44;5060561;28;46495;-75
2022/07/05 07:47:39;;;;;;;;;7.00;5.00;;;;;19.64;63.90;101896.97;5042442;28;45351;-75
2022/07/05 07:50:06;;;;;;;;;6.00;6.00;;;;;19.74;63.77;101892.00;5060601;28;45288;-75
2022/07/05 07:52:33;;;;;;;;;6.00;6.00;;;;;19.78;63.40;101898.63;5060502;28;45490;-75
2022/07/05 07:54:59;;;;;;;;;7.00;7.00;;;;;19.85;63.35;101895.94;5042217;28;47631;-75
2022/07/05 07:57:25;;;;;;;;;5.67;5.33;;;;;19.89;63.29;101894.47;5046216;28;45395;-74
2022/07/05 07:59:50;;;;;;;;;10.33;10.33;;;;;19.96;63.59;101886.34;5060380;28;45595;-74
2022/07/05 08:02:17;;;;;;;;;8.33;7.67;;;;;20.07;63.04;101893.03;5042111;28;47230;-74
2022/07/05 08:04:42;;;;;;;;;12.33;7.00;;;;;20.15;62.56;101889.28;5060314;28;45404;-74
2022/07/05 08:07:08;;;;;;;;;22.33;19.33;;;;;20.12;62.61;101887.84;5059930;28;45461;-75
2022/07/05 08:09:33;;;;;;;;;8.00;7.67;;;;;20.25;62.50;101889.66;5060146;28;45350;-74
2022/07/05 08:11:58;;;;;;;;;7.67;7.67;;;;;20.28;62.72;101894.66;5052635;28;46239;-75
2022/07/05 08:14:24;;;;;;;;;5.33;5.33;;;;;20.30;61.34;101887.16;5060165;28;46558;-74
2022/07/05 08:16:51;;;;;;;;;7.00;5.67;;;;;20.38;61.19;101887.97;5070670;28;45288;-75
2022/07/05 08:22:19;;;;;;;;;8.33;8.33;;;;;20.52;60.68;101884.19;4996945;28;45419;-75
2022/07/05 08:24:44;;;;;;;;;8.00;6.33;;;;;20.58;60.69;101884.34;5034167;28;45763;-75
2022/07/05 08:27:10;;;;;;;;;7.00;6.00;;;;;20.69;61.01;101894.50;5041773;28;45248;-75
2022/07/05 08:29:36;;;;;;;;;6.67;4.67;;;;;20.74;60.58;101881.16;5059926;28;45256;-74
2022/07/05 08:32:02;;;;;;;;;5.67;5.67;;;;;20.86;60.69;101878.63;5045690;28;47320;-75
2022/07/05 08:34:27;;;;;;;;;6.33;6.00;;;;;20.96;60.26;101885.47;5038482;28;48067;-75
2022/07/05 08:36:53;;;;;;;;;8.33;6.67;;;;;20.94;59.29;101878.41;5040631;28;45922;-75
2022/07/05 08:39:18;;;;;;;;;5.33;4.00;;;;;21.01;59.55;101870.25;5059808;28;45502;-75
2022/07/05 08:41:51;;;;;;;;;5.00;5.00;;;;;21.20;59.95;101886.56;5059516;28;45588;-74
2022/07/05 08:44:20;;;;;;;;;5.00;5.00;;;;;21.25;58.70;101872.41;5041380;28;47499;-74
2022/07/05 08:46:47;;;;;;;;;5.00;5.00;;;;;21.30;58.98;101868.00;5059425;28;45321;-75
2022/07/05 08:49:14;;;;;;;;;7.00;7.00;;;;;21.40;58.16;101874.78;5059750;28;45343;-74
2022/07/05 08:51:40;;;;;;;;;7.00;5.67;;;;;;;;5059531;28;45296;-75
2022/07/05 08:54:08;;;;;;;;;4.33;4.33;;;;;21.56;57.87;101873.41;5041271;28;47183;-75
2022/07/05 08:56:35;;;;;;;;;5.67;5.67;;;;;21.60;57.32;101874.63;5059335;28;45164;-74
2022/07/05 08:59:00;;;;;;;;;6.00;5.00;;;;;21.65;57.25;101871.25;5059499;28;45394;-75
2022/07/05 09:01:27;;;;;;;;;6.00;6.00;;;;;21.72;56.55;101874.72;5049194;28;45379;-74
2022/07/05 09:03:52;;;;;;;;;4.67;4.67;;;;;21.74;56.46;101864.53;5059325;28;45757;-75
2022/07/05 09:06:20;;;;;;;;;6.00;6.00;;;;;21.81;56.00;101869.88;5059456;28;45406;-74
2022/07/05 09:08:47;;;;;;;;;6.00;6.00;;;;;21.82;55.99;101868.84;5059116;28;45311;-74
2022/07/05 09:11:14;;;;;;;;;6.33;6.33;;;;;21.85;55.27;101859.47;5059287;28;45283;-74
2022/07/05 09:13:42;;;;;;;;;7.33;6.00;;;;;21.88;55.29;101864.44;5059242;28;45536;-75
2022/07/05 09:16:08;;;;;;;;;6.33;5.00;;;;;21.95;55.58;101870.59;5063849;28;45342;-75
2022/07/05 09:18:48;;;;;;;;;4.33;4.33;;;;;22.00;54.50;101868.03;5067150;28;45262;-75
2022/07/05 09:21:16;;;;;;;;;6.00;6.00;;;;;22.10;55.38;101867.53;5056446;28;47203;-74
2022/07/05 09:23:43;;;;;;;;;7.00;4.33;;;;;22.15;55.02;101864.16;5046238;28;47334;-75
2022/07/05 09:26:09;;;;;;;;;5.00;4.00;;;;;22.27;54.50;101864.22;5058752;28;45358;-75
2022/07/05 09:28:34;;;;;;;;;7.00;5.33;;;;;22.31;54.35;101851.88;5059273;28;45385;-75
2022/07/05 09:30:59;;;;;;;;;4.00;4.00;;;;;22.43;54.53;101860.06;5059041;28;45592;-74
2022/07/05 09:33:25;;;;;;;;;3.33;3.33;;;;;22.51;53.45;101858.94;5059772;28;47077;-75
2022/07/05 09:35:54;;;;;;;;;4.00;4.00;;;;;22.53;52.81;101868.47;5044627;28;45288;-74
2022/07/05 09:38:21;;;;;;;;;7.00;5.67;;;;;22.55;53.38;101869.09;5058115;28;45272;-75
2022/07/05 09:40:53;;;;;;;;;7.00;5.00;;;;;22.60;52.86;101867.59;5062400;28;45482;-74
2022/07/05 09:43:22;;;;;;;;;3.67;3.67;;;;;22.64;52.38;101868.78;5062346;28;46057;-75
2022/07/05 09:45:58;;;;;;;;;7.00;7.00;;;;;22.74;52.08;101877.19;5062543;28;45328;-74
2022/07/05 09:48:25;;;;;;;;;4.00;4.00;;;;;22.80;52.41;101870.03;5062261;28;45500;-74
2022/07/05 09:50:51;;;;;;;;;4.00;4.00;;;;;22.86;51.07;101863.69;5062517;28;45289;-75
2022/07/05 09:53:18;;;;;;;;;6.00;6.00;;;;;22.94;51.54;101870.69;5062120;28;46451;-74
2022/07/05 09:56:02;;;;;;;;;5.33;5.33;;;;;23.00;51.11;101864.34;5040872;28;45324;-75
2022/07/05 09:58:28;;;;;;;;;4.33;4.33;;;;;23.02;50.47;101861.41;5052933;28;45318;-74
2022/07/05 10:00:53;;;;;;;;;7.00;7.00;;;;;23.07;49.27;101851.50;5062299;28;45339;-74
2022/07/05 10:03:19;;;;;;;;;7.33;5.33;;;;;23.16;50.23;101862.00;5062221;28;45290;-74
2022/07/05 10:05:44;;;;;;;;;4.00;4.00;;;;;23.26;49.97;101858.75;5059421;28;45219;-75
2022/07/05 10:08:12;;;;;;;;;6.00;6.00;;;;;23.38;49.62;101864.22;5044213;28;45640;-74
2022/07/05 10:10:40;;;;;;;;;5.67;4.67;;;;;23.44;48.30;101866.00;5062002;28;45724;-75
2022/07/05 10:13:06;;;;;;;;;4.67;4.67;;;;;23.46;48.84;101844.88;5062162;28;45785;-75
2022/07/05 10:15:36;;;;;;;;;4.00;4.00;;;;;23.71;48.49;101868.25;5061949;28;45434;-74
2022/07/05 10:18:11;;;;;;;;;5.00;5.00;;;;;23.85;48.55;101865.31;5035959;28;45452;-75
2022/07/05 10:20:37;;;;;;;;;5.00;5.00;;;;;24.01;47.32;101863.75;5061941;28;45568;-75
2022/07/05 10:23:07;;;;;;;;;4.00;4.00;;;;;24.12;47.61;101862.09;5061703;28;45320;-75
2022/07/05 10:25:34;;;;;;;;;6.00;4.67;;;;;24.18;46.11;101872.03;5061794;28;45330;-74
2022/07/05 10:28:00;;;;;;;;;4.67;4.67;;;;;24.25;46.88;101870.00;5061849;28;45576;-74
2022/07/05 10:30:26;;;;;;;;;8.00;7.67;;;;;24.35;47.05;101874.81;5027112;28;46266;-74
2022/07/05 10:32:52;;;;;;;;;6.33;6.33;;;;;24.49;46.02;101867.22;5043576;28;47381;-74
2022/07/05 10:35:18;;;;;;;;;5.00;5.00;;;;;24.67;45.06;101874.38;5061921;28;45289;-75
2022/07/05 10:37:46;;;;;;;;;5.67;5.67;;;;;24.78;44.26;101869.13;5061722;28;45427;-74
2022/07/05 10:40:11;;;;;;;;;6.00;6.00;;;;;24.95;44.79;101869.19;5061732;28;45326;-75
2022/07/05 10:42:55;;;;;;;;;5.00;5.00;;;;;25.09;43.42;101861.53;5061557;28;45413;-74
2022/07/05 10:45:29;;;;;;;;;5.00;5.00;;;;;25.39;44.16;101867.72;5058279;28;45706;-75
2022/07/05 10:48:10;;;;;;;;;7.33;7.00;;;;;25.58;42.82;101860.97;5043714;28;45422;-75
2022/07/05 10:51:03;;;;;;;;;5.00;5.00;;;;;25.76;43.13;101855.50;5061334;28;45465;-75
2022/07/05 10:53:54;;;;;;;;;5.00;5.00;;;;;26.00;42.48;101864.28;5055532;28;47375;-75
2022/07/05 10:56:19;;;;;;;;;6.00;6.00;;;;;26.13;42.62;101852.22;5061290;28;45288;-74
2022/07/05 10:58:46;;;;;;;;;7.00;7.00;;;;;26.35;43.09;101856.84;5061283;28;45169;-75
2022/07/05 11:01:11;;;;;;;;;4.33;4.33;;;;;26.48;41.94;101861.06;5043347;28;46486;-74
2022/07/05 11:03:41;;;;;;;;;7.67;7.00;;;;;26.65;42.05;101857.44;5043131;28;48415;-75
2022/07/05 11:06:10;;;;;;;;;6.33;5.67;;;;;26.75;41.86;101849.34;5061498;28;45261;-76
2022/07/05 11:09:00;;;;;;;;;6.00;6.00;;;;;26.92;41.04;101853.88;5043362;28;45179;-75
2022/07/05 11:11:37;;;;;;;;;6.33;6.33;;;;;27.01;40.19;101846.06;5061731;28;45414;-75
2022/07/05 11:14:25;;;;;;;;;8.00;6.00;;;;;27.18;40.19;101851.41;5061245;28;46423;-75
2022/07/05 11:17:13;;;;;;;;;4.67;4.67;;;;;27.38;40.47;101849.94;5071465;28;45334;-75
2022/07/05 11:20:15;;;;;;;;;6.67;6.67;;;;;27.58;40.58;101847.34;5058392;28;45289;-75
2022/07/05 11:23:03;;;;;;;;;5.33;5.33;;;;;27.65;37.76;101855.31;5009514;28;46220;-75
2022/07/05 11:25:31;;;;;;;;;5.00;3.67;;;;;27.67;38.06;101852.31;5049370;28;47611;-76
2022/07/05 11:28:24;;;;;;;;;6.67;6.67;;;;;27.77;38.69;101846.91;5061220;28;45482;-75
2022/07/05 11:31:01;;;;;;;;;7.00;6.00;;;;;27.90;37.30;101851.09;5055208;28;45565;-75
2022/07/05 11:33:40;;;;;;;;;7.33;7.33;;;;;27.90;38.32;101837.44;5042520;28;47063;-74
2022/07/05 11:36:28;;;;;;;;;4.67;4.00;;;;;28.02;38.22;101844.56;5060607;28;47386;-75